Time;durP1;ratioP1;P1;durP2;ratioP2;P2;SDS_P1;SDS_P2;PMS_P1;PMS_P2;Temp;Humidity;BMP_temperature;BMP_pressure;BME280_temperature;BME280_humidity;BME280_pressure;Samples;Min_cycle;Max_cycle;Signal;HPM_P1;HPM_P2
2023/01/26 00:02:47;;;;;;;12.70;5.55;;;;;;;;;;10466715;28;20092;-69
2023/01/26 00:07:47;;;;;;;7.00;4.03;;;;;;;;;;10467319;28;20430;-77
2023/01/26 00:12:47;;;;;;;11.25;4.38;;;;;;;;;;10464069;28;20028;-78
2023/01/26 00:17:50;;;;;;;12.97;5.23;;;;;;;;;;10483189;28;20032;-75
2023/01/26 00:22:50;;;;;;;17.05;7.60;;;;;;;;;;10444329;28;20287;-74
2023/01/26 00:27:50;;;;;;;6.57;4.93;;;;;;;;;;10484781;28;20016;-70
2023/01/26 00:32:51;;;;;;;10.52;5.70;;;;;;;;;;10463113;28;20039;-75
2023/01/26 00:37:51;;;;;;;12.02;6.40;;;;;;;;;;10466482;28;20027;-74
2023/01/26 00:42:53;;;;;;;15.73;5.83;;;;;;;;;;10465806;28;20036;-78
2023/01/26 00:47:53;;;;;;;11.15;5.38;;;;;;;;;;10474749;28;20062;-73
2023/01/26 00:52:53;;;;;;;10.75;4.60;;;;;;;;;;10471969;28;20481;-71
2023/01/26 00:57:54;;;;;;;9.50;6.35;;;;;;;;;;10483565;28;20506;-78
2023/01/26 01:02:55;;;;;;;10.35;5.65;;;;;;;;;;10465373;28;20060;-76
2023/01/26 01:07:55;;;;;;;5.57;3.55;;;;;;;;;;10463628;28;20066;-73
2023/01/26 01:12:56;;;;;;;16.67;7.30;;;;;;;;;;10465253;28;20397;-70
2023/01/26 01:17:56;;;;;;;10.75;6.25;;;;;;;;;;10463075;28;20028;-73
2023/01/26 01:22:56;;;;;;;15.88;5.30;;;;;;;;;;10461538;28;20120;-74
2023/01/26 01:27:56;;;;;;;14.45;5.78;;;;;;;;;;10463238;28;20024;-73
2023/01/26 01:32:57;;;;;;;11.02;4.75;;;;;;;;;;10464809;28;20024;-69
2023/01/26 01:37:57;;;;;;;8.50;4.53;;;;;;;;;;10464810;28;20055;-75
2023/01/26 01:42:57;;;;;;;8.65;3.67;;;;;;;;;;10461867;28;20029;-76
2023/01/26 01:48:00;;;;;;;6.97;3.57;;;;;;;;;;10462084;28;20035;-75
2023/01/26 01:53:01;;;;;;;8.52;5.05;;;;;;;;;;10462383;28;20112;-70
2023/01/26 01:58:02;;;;;;;9.23;4.05;;;;;;;;;;10464450;28;20512;-76
2023/01/26 02:03:10;;;;;;;5.75;4.03;;;;;;;;;;10481839;28;20143;-75
2023/01/26 02:08:11;;;;;;;8.68;4.43;;;;;;;;;;10454222;28;20029;-70
2023/01/26 02:13:12;;;;;;;6.47;3.67;;;;;;;;;;10450325;28;20036;-77
2023/01/26 02:18:12;;;;;;;4.65;2.67;;;;;;;;;;10455843;28;20036;-75
2023/01/26 02:23:16;;;;;;;9.75;5.75;;;;;;;;;;10468415;28;20032;-71
2023/01/26 02:28:17;;;;;;;8.73;5.43;;;;;;;;;;10460908;28;20039;-74
2023/01/26 02:33:18;;;;;;;11.15;5.05;;;;;;;;;;10460721;28;20127;-72
2023/01/26 02:38:20;;;;;;;8.85;5.60;;;;;;;;;;10464611;28;20032;-75
2023/01/26 02:43:22;;;;;;;3.60;2.83;;;;;;;;;;10450058;28;20564;-72
2023/01/26 02:53:41;;;;;;;9.05;5.55;;;;;;;;;;10488700;28;20529;-77
2023/01/26 02:58:41;;;;;;;10.20;4.40;;;;;;;;;;10470578;28;20032;-78
2023/01/26 03:03:42;;;;;;;8.75;4.32;;;;;;;;;;10452202;28;20029;-72
2023/01/26 03:08:42;;;;;;;11.70;6.00;;;;;;;;;;10463544;28;20025;-72
2023/01/26 03:13:42;;;;;;;8.48;4.88;;;;;;;;;;10459146;28;20020;-72
2023/01/26 03:29:21;;;;;;;7.18;4.68;;;;;;;;;;10479512;28;20528;-77
2023/01/26 03:34:21;;;;;;;9.02;4.28;;;;;;;;;;10451502;28;20071;-75
2023/01/26 04:00:37;;;;;;;6.35;3.92;;;;;;;;;;10479388;28;20045;-74
2023/01/26 04:10:56;;;;;;;3.60;2.33;;;;;;;;;;10485379;28;20025;-76
2023/01/26 04:21:34;;;;;;;8.07;4.07;;;;;;;;;;10482384;28;20442;-71
2023/01/26 04:26:35;;;;;;;7.20;4.05;;;;;;;;;;10484309;28;20409;-71
2023/01/26 04:31:36;;;;;;;6.47;4.40;;;;;;;;;;10484045;28;20105;-71
2023/01/26 04:36:37;;;;;;;6.43;4.28;;;;;;;;;;10467154;28;20033;-74
2023/01/26 04:41:37;;;;;;;10.73;6.38;;;;;;;;;;10465955;28;20020;-71
2023/01/26 04:46:37;;;;;;;7.93;5.13;;;;;;;;;;10465349;28;20514;-71
2023/01/26 04:51:38;;;;;;;8.60;5.63;;;;;;;;;;10480952;28;20059;-77
2023/01/26 04:56:38;;;;;;;9.60;5.07;;;;;;;;;;10445172;28;20112;-71
2023/01/26 05:01:38;;;;;;;8.73;5.27;;;;;;;;;;10447525;28;20040;-74
2023/01/26 05:06:40;;;;;;;5.10;3.80;;;;;;;;;;10458031;28;20263;-70
2023/01/26 05:11:41;;;;;;;13.70;5.72;;;;;;;;;;10480941;28;20473;-72
2023/01/26 05:16:41;;;;;;;7.47;4.47;;;;;;;;;;10459353;28;20024;-74
2023/01/26 05:21:41;;;;;;;6.75;4.25;;;;;;;;;;10460304;28;20043;-71
2023/01/26 05:26:42;;;;;;;6.65;3.58;;;;;;;;;;10447713;28;20029;-72
2023/01/26 05:31:42;;;;;;;6.43;4.20;;;;;;;;;;10464211;28;20640;-71
2023/01/26 05:36:42;;;;;;;6.03;3.60;;;;;;;;;;10459967;28;20021;-71
2023/01/26 05:41:42;;;;;;;10.48;5.60;;;;;;;;;;10448166;28;20082;-77
2023/01/26 05:46:43;;;;;;;8.20;5.32;;;;;;;;;;10483436;23;20061;-71
2023/01/26 05:51:43;;;;;;;12.70;6.47;;;;;;;;;;10459006;28;20121;-76
2023/01/26 05:56:43;;;;;;;10.20;6.03;;;;;;;;;;10481818;28;20434;-77
2023/01/26 06:01:43;;;;;;;12.40;6.93;;;;;;;;;;10469893;28;20451;-76
2023/01/26 06:06:44;;;;;;;11.02;6.97;;;;;;;;;;10469407;28;20051;-71
2023/01/26 06:11:44;;;;;;;16.85;7.53;;;;;;;;;;10471915;28;20024;-71
2023/01/26 06:16:44;;;;;;;14.63;7.78;;;;;;;;;;10467519;28;20043;-72
2023/01/26 06:21:44;;;;;;;16.55;8.27;;;;;;;;;;10467614;28;20032;-72
2023/01/26 06:26:48;;;;;;;13.05;7.13;;;;;;;;;;10463479;28;20021;-76
2023/01/26 06:31:48;;;;;;;14.82;7.70;;;;;;;;;;10437339;28;20020;-72
2023/01/26 06:36:49;;;;;;;15.27;6.10;;;;;;;;;;10461936;28;20059;-75
2023/01/26 06:41:49;;;;;;;12.50;6.80;;;;;;;;;;10451313;28;20055;-71
2023/01/26 06:46:49;;;;;;;15.40;7.97;;;;;;;;;;10443233;28;20049;-77
2023/01/26 06:51:58;;;;;;;13.73;6.32;;;;;;;;;;10446191;28;20021;-71
2023/01/26 06:56:58;;;;;;;14.88;6.93;;;;;;;;;;10444808;28;20017;-76
2023/01/26 07:01:58;;;;;;;17.80;8.35;;;;;;;;;;10443939;28;20021;-71
2023/01/26 07:06:59;;;;;;;18.02;8.45;;;;;;;;;;10444196;28;20056;-78
2023/01/26 07:11:59;;;;;;;15.73;6.75;;;;;;;;;;10444986;28;20513;-75
2023/01/26 07:17:00;;;;;;;14.70;8.55;;;;;;;;;;10444177;28;20021;-77
2023/01/26 07:22:00;;;;;;;17.38;7.80;;;;;;;;;;10443892;28;20436;-72
2023/01/26 07:27:00;;;;;;;13.70;7.10;;;;;;;;;;10444554;28;20013;-71
2023/01/26 07:32:01;;;;;;;14.70;8.05;;;;;;;;;;10443846;28;20024;-74
2023/01/26 07:37:01;;;;;;;16.38;7.78;;;;;;;;;;10443791;28;20422;-72
2023/01/26 07:42:01;;;;;;;18.25;8.40;;;;;;;;;;10442754;28;20021;-72
2023/01/26 07:47:01;;;;;;;11.80;7.50;;;;;;;;;;10443097;28;20037;-71
2023/01/26 07:52:03;;;;;;;18.30;7.55;;;;;;;;;;10442720;28;20032;-72
2023/01/26 07:57:05;;;;;;;12.23;7.03;;;;;;;;;;10442405;28;20410;-71
2023/01/26 08:02:08;;;;;;;12.40;7.45;;;;;;;;;;10443015;28;20021;-77
2023/01/26 08:07:08;;;;;;;15.98;7.70;;;;;;;;;;10440881;28;20021;-72
2023/01/26 08:12:08;;;;;;;12.23;5.80;;;;;;;;;;10443466;28;20041;-71
2023/01/26 08:17:08;;;;;;;15.40;7.30;;;;;;;;;;10441648;28;20112;-77
2023/01/26 08:22:09;;;;;;;13.63;6.95;;;;;;;;;;10446985;28;20028;-72
2023/01/26 08:27:09;;;;;;;20.45;6.82;;;;;;;;;;10442725;28;20017;-72
2023/01/26 08:32:09;;;;;;;13.25;7.30;;;;;;;;;;10442828;28;20053;-73
2023/01/26 08:37:09;;;;;;;17.23;7.37;;;;;;;;;;10442874;28;20265;-76
2023/01/26 08:42:10;;;;;;;12.40;6.60;;;;;;;;;;10440903;28;20025;-73
2023/01/26 08:47:10;;;;;;;14.70;6.43;;;;;;;;;;10473849;28;20044;-73
2023/01/26 08:52:10;;;;;;;12.98;5.78;;;;;;;;;;10442857;28;20102;-75
2023/01/26 08:57:11;;;;;;;10.15;5.35;;;;;;;;;;10477718;28;20143;-76
2023/01/26 09:02:11;;;;;;;8.57;4.05;;;;;;;;;;10483140;28;20528;-73
2023/01/26 09:07:11;;;;;;;9.75;3.53;;;;;;;;;;10465367;28;20100;-75
2023/01/26 09:12:11;;;;;;;11.00;4.70;;;;;;;;;;10465375;28;20032;-71
2023/01/26 09:17:12;;;;;;;8.25;5.10;;;;;;;;;;10465094;28;20121;-73
2023/01/26 09:22:13;;;;;;;8.45;4.90;;;;;;;;;;10465430;28;20137;-72
2023/01/26 09:27:13;;;;;;;7.53;4.85;;;;;;;;;;10467820;28;20170;-78
2023/01/26 09:32:14;;;;;;;7.00;4.68;;;;;;;;;;10472911;28;20032;-71
2023/01/26 09:37:14;;;;;;;9.77;5.45;;;;;;;;;;10472926;28;20020;-75
2023/01/26 09:42:15;;;;;;;7.03;4.47;;;;;;;;;;10474452;28;20078;-73
2023/01/26 09:47:15;;;;;;;9.70;4.40;;;;;;;;;;10447863;28;20248;-70
2023/01/26 09:52:30;;;;;;;9.23;4.70;;;;;;;;;;10449022;28;20507;-71
2023/01/26 09:57:37;;;;;;;7.88;5.03;;;;;;;;;;10447668;28;20029;-74
2023/01/26 10:02:55;;;;;;;10.50;4.50;;;;;;;;;;10446842;28;20029;-72
2023/01/26 10:07:56;;;;;;;5.85;3.03;;;;;;;;;;10442973;28;20048;-72
2023/01/26 10:12:56;;;;;;;5.95;3.72;;;;;;;;;;10446856;28;20566;-76
2023/01/26 10:17:59;;;;;;;6.68;2.78;;;;;;;;;;10447865;28;20115;-72
2023/01/26 10:23:05;;;;;;;9.63;3.25;;;;;;;;;;10445488;28;20478;-71
2023/01/26 10:28:13;;;;;;;4.40;2.42;;;;;;;;;;10446273;28;20528;-71
2023/01/26 10:33:15;;;;;;;4.43;3.00;;;;;;;;;;10446208;28;20047;-79
2023/01/26 10:38:26;;;;;;;6.00;3.55;;;;;;;;;;10445990;28;20036;-73
2023/01/26 10:43:26;;;;;;;3.42;2.65;;;;;;;;;;10436217;28;20415;-71
2023/01/26 10:48:26;;;;;;;6.90;3.80;;;;;;;;;;10465513;28;20024;-71
2023/01/26 10:53:28;;;;;;;6.73;3.30;;;;;;;;;;10467569;28;20170;-76
2023/01/26 10:58:34;;;;;;;8.82;3.17;;;;;;;;;;10488026;28;20345;-75
2023/01/26 11:03:35;;;;;;;5.93;3.53;;;;;;;;;;10469273;28;20036;-70
2023/01/26 11:08:37;;;;;;;7.50;3.42;;;;;;;;;;10489544;28;20098;-72
2023/01/26 11:13:37;;;;;;;8.55;3.33;;;;;;;;;;10469473;28;20093;-72
2023/01/26 11:18:43;;;;;;;4.97;3.37;;;;;;;;;;10486146;28;20502;-72
2023/01/26 11:23:46;;;;;;;10.10;3.10;;;;;;;;;;10465974;28;20021;-72
2023/01/26 11:29:07;;;;;;;8.65;4.18;;;;;;;;;;10467961;28;20021;-72
2023/01/26 11:34:13;;;;;;;7.25;4.82;;;;;;;;;;10428235;28;20039;-71
2023/01/26 11:39:14;;;;;;;4.50;2.63;;;;;;;;;;10451719;28;20016;-71
2023/01/26 11:44:20;;;;;;;6.95;3.97;;;;;;;;;;10432737;28;20044;-71
2023/01/26 11:49:37;;;;;;;6.88;3.92;;;;;;;;;;10466760;28;20103;-72
2023/01/26 11:54:52;;;;;;;11.45;4.13;;;;;;;;;;10467467;28;20032;-72
2023/01/26 11:59:59;;;;;;;5.57;2.25;;;;;;;;;;10467296;28;20056;-72
2023/01/26 12:05:02;;;;;;;5.82;2.60;;;;;;;;;;10466898;28;20056;-73
2023/01/26 12:10:04;;;;;;;5.18;3.42;;;;;;;;;;10466436;28;20020;-72
2023/01/26 12:15:14;;;;;;;5.50;3.28;;;;;;;;;;10467195;28;20025;-71
2023/01/26 12:20:27;;;;;;;5.53;3.85;;;;;;;;;;10466638;28;20519;-71
2023/01/26 12:25:32;;;;;;;6.47;3.55;;;;;;;;;;10466310;28;20027;-72
2023/01/26 12:30:36;;;;;;;5.55;3.78;;;;;;;;;;10467145;28;20021;-76
2023/01/26 12:35:47;;;;;;;8.32;5.13;;;;;;;;;;10483291;28;20081;-71
2023/01/26 12:40:57;;;;;;;6.32;4.47;;;;;;;;;;10466068;28;20044;-75
2023/01/26 12:45:59;;;;;;;9.73;3.78;;;;;;;;;;10441992;28;20124;-71
2023/01/26 12:51:04;;;;;;;13.18;5.07;;;;;;;;;;10440772;28;20036;-71
2023/01/26 12:56:04;;;;;;;7.75;5.03;;;;;;;;;;10440326;28;20028;-77
2023/01/26 13:01:09;;;;;;;12.82;6.78;;;;;;;;;;10441164;28;20029;-72
2023/01/26 13:06:09;;;;;;;7.45;5.25;;;;;;;;;;10440598;28;20112;-71
2023/01/26 13:11:09;;;;;;;9.55;4.30;;;;;;;;;;10439967;28;20023;-72
2023/01/26 13:16:16;;;;;;;11.85;5.18;;;;;;;;;;10439991;28;20028;-72
2023/01/26 13:21:28;;;;;;;13.07;7.38;;;;;;;;;;10440007;28;20049;-71
2023/01/26 13:26:29;;;;;;;9.65;5.53;;;;;;;;;;10439754;28;20064;-71
2023/01/26 13:31:30;;;;;;;14.93;6.43;;;;;;;;;;10439995;28;20516;-72
2023/01/26 13:36:36;;;;;;;14.13;7.63;;;;;;;;;;10421793;28;20061;-70
2023/01/26 13:41:42;;;;;;;17.75;9.00;;;;;;;;;;10439970;28;20029;-72
2023/01/26 13:46:51;;;;;;;17.75;7.13;;;;;;;;;;10439283;28;20044;-76
2023/01/26 13:51:51;;;;;;;13.48;7.20;;;;;;;;;;10432238;28;20469;-75
2023/01/26 13:57:02;;;;;;;17.85;8.18;;;;;;;;;;10428053;28;20113;-74
2023/01/26 14:02:09;;;;;;;16.90;7.32;;;;;;;;;;10434912;28;20150;-74
2023/01/26 14:07:16;;;;;;;12.27;6.70;;;;;;;;;;10437483;28;20475;-72
2023/01/26 14:12:22;;;;;;;11.82;6.40;;;;;;;;;;10442630;28;20031;-70
2023/01/26 14:17:27;;;;;;;13.68;7.35;;;;;;;;;;10443561;28;20035;-77
2023/01/26 14:22:28;;;;;;;9.98;5.57;;;;;;;;;;10445971;28;20040;-76
2023/01/26 14:27:39;;;;;;;8.88;5.68;;;;;;;;;;10444060;28;20027;-75
2023/01/26 14:32:39;;;;;;;11.52;6.15;;;;;;;;;;10441261;28;20037;-76
2023/01/26 14:37:40;;;;;;;12.55;6.30;;;;;;;;;;10444173;28;20056;-76
2023/01/26 14:42:41;;;;;;;9.77;6.05;;;;;;;;;;10443173;28;20401;-75
2023/01/26 14:47:42;;;;;;;10.93;5.72;;;;;;;;;;10487118;28;20071;-73
2023/01/26 14:52:44;;;;;;;10.77;5.80;;;;;;;;;;10485918;28;20064;-70
2023/01/26 14:57:44;;;;;;;7.97;5.10;;;;;;;;;;10471995;28;20028;-71
2023/01/26 15:02:46;;;;;;;12.02;6.97;;;;;;;;;;10467587;28;20490;-71
2023/01/26 15:07:56;;;;;;;15.23;8.00;;;;;;;;;;10467764;28;20040;-71
2023/01/26 15:13:02;;;;;;;17.75;9.18;;;;;;;;;;10466851;28;20112;-71
2023/01/26 15:18:02;;;;;;;17.80;7.47;;;;;;;;;;10471898;28;20036;-70
2023/01/26 15:23:12;;;;;;;16.13;8.82;;;;;;;;;;10467356;28;20037;-73
2023/01/26 15:28:22;;;;;;;19.40;8.80;;;;;;;;;;10469755;28;20431;-75
2023/01/26 15:33:34;;;;;;;13.00;6.95;;;;;;;;;;10458911;28;20623;-71
2023/01/26 15:38:35;;;;;;;19.40;9.30;;;;;;;;;;10465630;28;20582;-72
2023/01/26 15:43:35;;;;;;;22.48;9.82;;;;;;;;;;10465434;28;20052;-70
2023/01/26 15:48:35;;;;;;;21.98;9.95;;;;;;;;;;10466264;28;20036;-74
2023/01/26 15:53:36;;;;;;;20.05;10.63;;;;;;;;;;10482748;28;20868;-70
2023/01/26 15:58:36;;;;;;;22.75;9.77;;;;;;;;;;10464253;28;20542;-70
2023/01/26 16:03:36;;;;;;;16.30;7.93;;;;;;;;;;10482585;28;20039;-74
2023/01/26 16:08:37;;;;;;;18.85;8.20;;;;;;;;;;10464496;28;20353;-75
2023/01/26 16:13:38;;;;;;;23.63;9.52;;;;;;;;;;10482719;28;20039;-71
2023/01/26 16:18:39;;;;;;;18.88;9.00;;;;;;;;;;10473881;28;20626;-70
2023/01/26 16:23:39;;;;;;;22.83;10.07;;;;;;;;;;10464064;28;20528;-71
2023/01/26 16:28:40;;;;;;;18.60;9.90;;;;;;;;;;10482049;28;20081;-75
2023/01/26 16:33:40;;;;;;;15.93;9.50;;;;;;;;;;10463558;28;20402;-70
2023/01/26 16:38:41;;;;;;;23.97;11.13;;;;;;;;;;10463904;28;20095;-71
2023/01/26 16:43:42;;;;;;;18.98;10.35;;;;;;;;;;10463545;28;20040;-72
2023/01/26 16:48:42;;;;;;;15.02;8.48;;;;;;;;;;10463018;28;20043;-73
2023/01/26 16:53:42;;;;;;;15.60;7.43;;;;;;;;;;10463563;28;20028;-72
2023/01/26 16:58:43;;;;;;;14.32;7.65;;;;;;;;;;10485525;28;20033;-73
2023/01/26 17:03:43;;;;;;;14.18;7.78;;;;;;;;;;10463491;28;20031;-74
2023/01/26 17:08:44;;;;;;;11.52;6.35;;;;;;;;;;10463634;28;20517;-72
2023/01/26 17:13:44;;;;;;;10.57;6.05;;;;;;;;;;10480553;28;20055;-69
2023/01/26 17:18:45;;;;;;;13.35;7.43;;;;;;;;;;10460866;28;20028;-73
2023/01/26 17:23:49;;;;;;;18.70;7.68;;;;;;;;;;10470301;28;20025;-75
2023/01/26 17:28:51;;;;;;;17.35;8.65;;;;;;;;;;10460552;28;20028;-73
2023/01/26 17:33:53;;;;;;;16.10;8.02;;;;;;;;;;10457425;28;20701;-75
2023/01/26 17:38:53;;;;;;;20.17;10.10;;;;;;;;;;10463428;28;20085;-71
2023/01/26 17:43:54;;;;;;;21.88;9.88;;;;;;;;;;10461818;28;20044;-72
2023/01/26 17:48:54;;;;;;;29.90;14.30;;;;;;;;;;10467275;28;20090;-75
2023/01/26 17:53:54;;;;;;;29.97;12.37;;;;;;;;;;10471368;28;20142;-79
2023/01/26 17:58:54;;;;;;;20.13;10.90;;;;;;;;;;10468326;28;20038;-75
2023/01/26 18:03:55;;;;;;;19.70;10.93;;;;;;;;;;10451723;28;20095;-74
2023/01/26 18:08:55;;;;;;;23.27;11.60;;;;;;;;;;10469861;28;20490;-76
2023/01/26 18:13:56;;;;;;;22.08;11.20;;;;;;;;;;10471419;28;20084;-74
2023/01/26 18:18:57;;;;;;;19.15;9.73;;;;;;;;;;10483609;28;20027;-73
2023/01/26 18:23:59;;;;;;;16.92;9.25;;;;;;;;;;10468334;28;20021;-71
2023/01/26 18:29:00;;;;;;;15.98;8.73;;;;;;;;;;10468515;28;20052;-78
2023/01/26 18:34:01;;;;;;;19.98;8.48;;;;;;;;;;10467552;28;20131;-75
2023/01/26 18:39:03;;;;;;;13.60;7.28;;;;;;;;;;10467047;28;20048;-71
2023/01/26 18:44:04;;;;;;;25.42;8.50;;;;;;;;;;10465142;28;20048;-79
2023/01/26 18:49:04;;;;;;;8.93;5.63;;;;;;;;;;10475466;28;20024;-70
2023/01/26 18:54:04;;;;;;;16.02;6.05;;;;;;;;;;10470397;28;20332;-79
2023/01/26 18:59:08;;;;;;;5.25;3.28;;;;;;;;;;10462198;28;20033;-76
2023/01/26 19:04:08;;;;;;;9.98;6.32;;;;;;;;;;10462621;28;20037;-74
2023/01/26 19:09:10;;;;;;;12.17;5.30;;;;;;;;;;10446099;28;20028;-76
2023/01/26 19:14:10;;;;;;;8.82;5.20;;;;;;;;;;10468007;28;20032;-76
2023/01/26 19:19:10;;;;;;;8.35;5.15;;;;;;;;;;10456657;28;20071;-78
2023/01/26 19:24:11;;;;;;;9.07;4.77;;;;;;;;;;10466385;28;20089;-76
2023/01/26 19:29:11;;;;;;;9.70;5.00;;;;;;;;;;10457332;28;20033;-75
2023/01/26 19:34:12;;;;;;;12.30;6.03;;;;;;;;;;10464756;28;20525;-75
2023/01/26 19:39:13;;;;;;;11.52;7.60;;;;;;;;;;10457936;28;20145;-70
2023/01/26 19:44:13;;;;;;;10.88;6.78;;;;;;;;;;10464257;28;20456;-72
2023/01/26 19:49:14;;;;;;;12.50;7.07;;;;;;;;;;10464344;28;20862;-73
2023/01/26 19:54:15;;;;;;;10.38;6.40;;;;;;;;;;10463677;28;20021;-74
2023/01/26 19:59:15;;;;;;;10.40;6.30;;;;;;;;;;10484593;28;20024;-70
2023/01/26 20:04:15;;;;;;;10.33;5.67;;;;;;;;;;10460772;28;20087;-73
2023/01/26 20:09:16;;;;;;;10.82;5.78;;;;;;;;;;10459509;28;20350;-71
2023/01/26 20:14:16;;;;;;;10.18;5.47;;;;;;;;;;10460705;28;20025;-71
2023/01/26 20:19:16;;;;;;;9.35;5.63;;;;;;;;;;10457791;28;20086;-70
2023/01/26 20:24:17;;;;;;;8.77;5.07;;;;;;;;;;10480334;28;20040;-71
2023/01/26 20:29:17;;;;;;;10.82;5.80;;;;;;;;;;10462182;28;20052;-72
2023/01/26 20:34:20;;;;;;;7.47;4.97;;;;;;;;;;10459358;28;20028;-71
2023/01/26 20:39:23;;;;;;;10.80;5.10;;;;;;;;;;10458974;28;20414;-77
2023/01/26 20:44:24;;;;;;;7.43;4.72;;;;;;;;;;10461603;28;20082;-75
2023/01/26 20:49:24;;;;;;;9.15;4.55;;;;;;;;;;10464213;28;20106;-78
2023/01/26 20:54:25;;;;;;;13.68;5.10;;;;;;;;;;10459272;28;20056;-77
2023/01/26 20:59:25;;;;;;;8.38;5.28;;;;;;;;;;10461700;28;20016;-74
2023/01/26 21:04:30;;;;;;;10.60;6.07;;;;;;;;;;10476278;28;20271;-77
2023/01/26 21:09:31;;;;;;;11.80;6.32;;;;;;;;;;10461821;28;20017;-76
2023/01/26 21:14:31;;;;;;;11.57;6.30;;;;;;;;;;10468434;28;20024;-75
2023/01/26 21:19:32;;;;;;;20.25;7.00;;;;;;;;;;10478206;28;20035;-75
2023/01/26 21:24:33;;;;;;;8.73;5.53;;;;;;;;;;10458385;28;20020;-77
2023/01/26 21:29:39;;;;;;;11.30;5.82;;;;;;;;;;10463454;28;20021;-75
2023/01/26 21:34:40;;;;;;;13.00;7.03;;;;;;;;;;10439639;28;20482;-75
2023/01/26 21:39:40;;;;;;;10.97;6.17;;;;;;;;;;10461831;28;20017;-71
2023/01/26 21:49:59;;;;;;;7.80;5.28;;;;;;;;;;10478057;28;20029;-70
2023/01/26 21:54:59;;;;;;;12.90;6.60;;;;;;;;;;10475231;28;20478;-75
2023/01/26 21:59:59;;;;;;;11.90;6.27;;;;;;;;;;10463189;28;20413;-75
2023/01/26 22:05:00;;;;;;;15.02;8.07;;;;;;;;;;10457480;28;20525;-69
2023/01/26 22:10:00;;;;;;;17.80;9.90;;;;;;;;;;10459961;28;20009;-76
2023/01/26 22:15:00;;;;;;;20.73;11.10;;;;;;;;;;10460381;28;20354;-77
2023/01/26 22:20:01;;;;;;;24.38;11.77;;;;;;;;;;10462610;28;20727;-78
2023/01/26 22:25:01;;;;;;;23.23;12.80;;;;;;;;;;10462052;28;20467;-74
2023/01/26 22:30:01;;;;;;;33.22;13.20;;;;;;;;;;10477715;28;20270;-74
2023/01/26 22:35:03;;;;;;;26.87;10.80;;;;;;;;;;10482905;28;20103;-74
2023/01/26 22:40:03;;;;;;;19.63;10.50;;;;;;;;;;10469526;28;20020;-74
2023/01/26 22:45:04;;;;;;;22.70;12.00;;;;;;;;;;10470234;28;20093;-75
2023/01/26 22:50:04;;;;;;;18.45;10.55;;;;;;;;;;10479271;28;20147;-74
2023/01/26 22:55:05;;;;;;;22.10;12.43;;;;;;;;;;10469350;28;20042;-74
2023/01/26 23:00:06;;;;;;;17.60;10.63;;;;;;;;;;10467019;28;20013;-74
2023/01/26 23:05:06;;;;;;;20.83;12.07;;;;;;;;;;10468203;28;20494;-73
2023/01/26 23:10:06;;;;;;;19.92;10.98;;;;;;;;;;10462721;28;20549;-76
2023/01/26 23:15:07;;;;;;;17.92;10.57;;;;;;;;;;10467425;28;20017;-76
2023/01/26 23:20:08;;;;;;;19.50;11.13;;;;;;;;;;10482410;28;20016;-71
2023/01/26 23:30:27;;;;;;;19.98;9.20;;;;;;;;;;10485308;28;20498;-71
2023/01/26 23:35:28;;;;;;;18.10;9.32;;;;;;;;;;10460294;28;20020;-74
2023/01/26 23:40:28;;;;;;;15.52;8.80;;;;;;;;;;10464976;28;20496;-73
2023/01/26 23:45:28;;;;;;;15.23;8.25;;;;;;;;;;10466040;28;20071;-75
2023/01/26 23:50:29;;;;;;;16.17;8.00;;;;;;;;;;10482096;28;20074;-76
2023/01/26 23:55:29;;;;;;;13.93;7.55;;;;;;;;;;10464378;28;20226;-76
